createdAt,value
2019-05-06T00:00:55.747Z,100765.92
2019-05-06T00:03:34.326Z,100760.78
2019-05-06T00:06:19.538Z,100766.58
2019-05-06T00:09:07.442Z,100766.91
2019-05-06T00:11:54.683Z,100768.53
2019-05-06T00:14:43.668Z,100763.77
2019-05-06T00:17:29.126Z,100769.55
2019-05-06T00:20:16.163Z,100762.27
2019-05-06T00:23:21.397Z,100764.38
2019-05-06T00:26:26.662Z,100766.12
2019-05-06T00:29:14.011Z,100764.62
2019-05-06T00:32:00.547Z,100760.93
2019-05-06T00:34:50.014Z,100759.34
2019-05-06T00:37:36.840Z,100769.24
2019-05-06T00:43:30.521Z,100763.67
2019-05-06T00:46:17.663Z,100772.25
2019-05-06T00:49:04.754Z,100764.31
2019-05-06T00:51:54.900Z,100766.33
2019-05-06T00:54:39.916Z,100769.52
2019-05-06T00:57:27.721Z,100768.09
2019-05-06T01:00:14.746Z,100777.75
2019-05-06T01:03:04.315Z,100782.66
2019-05-06T01:05:54.254Z,100775.30
2019-05-06T01:08:38.858Z,100781.40
2019-05-06T01:11:26.040Z,100782.63
2019-05-06T01:14:16.878Z,100781.81
2019-05-06T01:17:04.004Z,100783.00
2019-05-06T01:19:50.628Z,100793.96
2019-05-06T01:22:37.717Z,100791.26
2019-05-06T01:25:25.432Z,100797.30
2019-05-06T01:28:13.794Z,100797.59
2019-05-06T01:31:00.432Z,100797.36
2019-05-06T01:33:48.513Z,100799.32
2019-05-06T01:36:35.355Z,100806.05
2019-05-06T01:39:31.060Z,100806.63
2019-05-06T01:42:37.801Z,100807.23
2019-05-06T01:45:24.969Z,100813.14
2019-05-06T01:48:15.615Z,100822.45
2019-05-06T01:51:03.590Z,100820.79
2019-05-06T01:53:50.305Z,100813.02
2019-05-06T01:56:38.703Z,100814.00
2019-05-06T01:59:25.615Z,100812.80
2019-05-06T02:02:14.175Z,100808.49
2019-05-06T02:04:59.174Z,100813.01
2019-05-06T02:07:46.373Z,100814.42
2019-05-06T02:10:34.640Z,100816.30
2019-05-06T02:13:20.697Z,100812.55
2019-05-06T02:16:07.725Z,100812.05
2019-05-06T02:18:55.366Z,100825.56
2019-05-06T02:21:43.838Z,100824.30
2019-05-06T02:24:29.878Z,100820.92
2019-05-06T02:27:17.808Z,100826.93
2019-05-06T02:30:25.224Z,100834.19
2019-05-06T02:39:55.303Z,100826.59
2019-05-06T02:42:44.783Z,100830.66
2019-05-06T02:45:33.498Z,100825.55
2019-05-06T02:51:44.309Z,100824.92
2019-05-06T02:54:34.441Z,100822.15
2019-05-06T02:57:18.219Z,100827.14
2019-05-06T03:00:15.196Z,100832.55
2019-05-06T03:03:02.981Z,100832.23
2019-05-06T03:05:49.423Z,100842.03
2019-05-06T03:08:53.291Z,100840.48
2019-05-06T03:11:38.379Z,100840.17
2019-05-06T03:14:25.504Z,100846.03
2019-05-06T03:20:36.737Z,100845.67
2019-05-06T03:23:24.014Z,100847.69
2019-05-06T03:26:25.304Z,100846.55
2019-05-06T03:29:26.796Z,100845.44
2019-05-06T03:32:16.461Z,100855.69
2019-05-06T03:35:25.808Z,100852.79
2019-05-06T03:37:48.152Z,100853.42
2019-05-06T03:40:36.658Z,100855.58
2019-05-06T03:43:23.281Z,100859.28
2019-05-06T03:46:14.242Z,100864.31
2019-05-06T03:49:04.775Z,100859.19
2019-05-06T03:51:55.945Z,100861.92
2019-05-06T03:54:39.293Z,100864.22
2019-05-06T04:00:33.352Z,100865.30
2019-05-06T04:03:41.176Z,100869.70
2019-05-06T04:06:24.404Z,100869.31
2019-05-06T04:09:13.259Z,100868.09
2019-05-06T04:11:58.434Z,100877.16
2019-05-06T04:14:45.303Z,100872.86
2019-05-06T04:20:59.141Z,100881.38
2019-05-06T04:23:46.399Z,100879.23
2019-05-06T04:26:39.207Z,100877.91
2019-05-06T04:29:27.600Z,100881.14
2019-05-06T04:32:14.813Z,100886.42
2019-05-06T04:35:09.586Z,100892.17
2019-05-06T04:37:56.306Z,100888.66
2019-05-06T04:40:44.465Z,100889.90
2019-05-06T04:43:33.633Z,100895.49
2019-05-06T04:46:23.654Z,100896.21
2019-05-06T04:49:10.713Z,100893.45
2019-05-06T04:51:55.061Z,100888.90
2019-05-06T04:57:47.829Z,100897.22
2019-05-06T05:00:35.083Z,100904.50
2019-05-06T05:03:22.892Z,100901.78
2019-05-06T05:06:09.334Z,100901.70
2019-05-06T05:08:55.984Z,100905.92
2019-05-06T05:11:45.557Z,100913.17
2019-05-06T05:14:35.356Z,100915.20
2019-05-06T05:17:28.215Z,100913.25
2019-05-06T05:20:14.892Z,100916.94
2019-05-06T05:23:02.290Z,100914.05
2019-05-06T05:25:48.709Z,100920.56
2019-05-06T05:28:35.638Z,100914.41
2019-05-06T05:31:23.088Z,100917.21
2019-05-06T05:34:12.666Z,100909.05
2019-05-06T05:36:57.850Z,100912.28
2019-05-06T05:39:44.595Z,100912.88
2019-05-06T05:42:32.746Z,100915.59
2019-05-06T05:45:18.711Z,100914.44
2019-05-06T05:48:09.134Z,100916.27
2019-05-06T05:50:56.026Z,100916.58
2019-05-06T05:53:42.970Z,100916.67
2019-05-06T05:56:29.639Z,100916.75
2019-05-06T05:59:16.557Z,100916.41
2019-05-06T06:02:03.920Z,100919.08
2019-05-06T06:04:57.188Z,100923.97
2019-05-06T06:07:42.239Z,100920.88
2019-05-06T06:10:36.684Z,100916.89
2019-05-06T06:13:23.610Z,100920.42
2019-05-06T06:16:13.299Z,100924.54
2019-05-06T06:19:03.665Z,100924.55
2019-05-06T06:21:56.265Z,100919.53
2019-05-06T06:24:42.999Z,100918.00
2019-05-06T06:27:30.149Z,100919.75
2019-05-06T06:30:17.508Z,100913.48
2019-05-06T06:33:04.757Z,100909.56
2019-05-06T06:35:51.999Z,100910.69
2019-05-06T06:38:53.973Z,100906.64
2019-05-06T06:41:42.402Z,100911.42
2019-05-06T06:44:27.950Z,100908.09
2019-05-06T06:47:14.859Z,100907.18
2019-05-06T06:50:02.868Z,100907.50
2019-05-06T06:52:48.893Z,100903.62
2019-05-06T06:55:36.026Z,100907.92
2019-05-06T06:58:23.251Z,100902.44
2019-05-06T07:01:13.016Z,100901.81
2019-05-06T07:04:03.181Z,100907.11
2019-05-06T07:06:47.101Z,100902.13
2019-05-06T07:09:34.497Z,100899.05
2019-05-06T07:12:23.437Z,100901.92
2019-05-06T07:15:09.222Z,100903.12
2019-05-06T07:17:55.949Z,100903.02
2019-05-06T07:20:46.030Z,100894.44
2019-05-06T07:23:33.050Z,100898.25
2019-05-06T07:29:26.856Z,100899.61
2019-05-06T07:32:13.087Z,100900.19
2019-05-06T07:35:02.087Z,100904.67
2019-05-06T07:37:47.112Z,100906.20
2019-05-06T07:40:34.497Z,100902.24
2019-05-06T07:43:27.978Z,100901.50
2019-05-06T07:46:23.498Z,100896.78
2019-05-06T07:49:09.496Z,100892.29
2019-05-06T07:51:56.920Z,100894.11
2019-05-06T07:54:44.046Z,100891.73
2019-05-06T07:57:32.817Z,100896.53
2019-05-06T08:00:17.741Z,100897.20
2019-05-06T08:03:04.772Z,100889.41
2019-05-06T08:05:58.212Z,100893.31
2019-05-06T08:08:43.259Z,100890.16
2019-05-06T08:11:29.374Z,100896.00
2019-05-06T08:14:16.209Z,100896.25
2019-05-06T08:17:03.201Z,100886.80
2019-05-06T08:19:50.021Z,100893.48
2019-05-06T08:26:10.075Z,100889.54
2019-05-06T08:28:45.865Z,100889.02
2019-05-06T08:31:32.813Z,100897.83
2019-05-06T08:34:22.477Z,100888.73
2019-05-06T08:37:12.595Z,100884.97
2019-05-06T08:40:03.388Z,100883.64
2019-05-06T08:42:49.630Z,100881.42
2019-05-06T08:45:36.542Z,100876.45
2019-05-06T08:48:23.774Z,100879.95
2019-05-06T08:51:10.375Z,100881.29
2019-05-06T08:53:57.258Z,100868.50
2019-05-06T08:56:43.994Z,100874.58
2019-05-06T08:59:32.084Z,100873.48
2019-05-06T09:02:18.192Z,100869.92
2019-05-06T09:05:05.351Z,100874.67
2019-05-06T09:07:52.652Z,100863.73
2019-05-06T09:10:39.683Z,100863.59
2019-05-06T09:13:26.698Z,100862.72
2019-05-06T09:16:13.600Z,100859.19
2019-05-06T09:19:04.439Z,100866.48
2019-05-06T09:21:47.630Z,100867.59
2019-05-06T09:24:34.444Z,100874.56
2019-05-06T09:27:22.631Z,100864.22
2019-05-06T09:30:08.885Z,100863.09
2019-05-06T09:32:55.574Z,100870.32
2019-05-06T09:35:42.760Z,100871.94
2019-05-06T09:38:32.059Z,100871.75
2019-05-06T09:41:16.616Z,100878.19
2019-05-06T09:44:17.717Z,100867.97
2019-05-06T09:47:06.844Z,100866.73
2019-05-06T09:49:53.704Z,100870.06
2019-05-06T09:52:42.678Z,100865.80
2019-05-06T09:55:49.324Z,100866.27
2019-05-06T09:58:36.499Z,100869.58
2019-05-06T10:01:23.800Z,100864.99
2019-05-06T10:04:12.959Z,100862.70
2019-05-06T10:07:00.039Z,100856.72
2019-05-06T10:09:44.598Z,100857.94
2019-05-06T10:12:32.886Z,100849.72
2019-05-06T10:18:25.345Z,100849.82
2019-05-06T10:21:12.578Z,100845.31
2019-05-06T10:23:59.392Z,100837.14
2019-05-06T10:26:46.161Z,100843.20
2019-05-06T10:29:32.983Z,100832.03
2019-05-06T10:32:32.781Z,100834.78
2019-05-06T10:35:19.194Z,100843.91
2019-05-06T10:38:34.701Z,100842.52
2019-05-06T10:44:46.100Z,100843.73
2019-05-06T10:47:33.627Z,100847.63
2019-05-06T10:50:22.865Z,100839.19
2019-05-06T10:53:14.406Z,100840.51
2019-05-06T10:56:23.053Z,100833.03
2019-05-06T10:59:09.829Z,100833.95
2019-05-06T11:02:14.967Z,100834.31
2019-05-06T11:05:02.762Z,100837.18
2019-05-06T11:07:52.028Z,100833.66
2019-05-06T11:10:41.228Z,100836.01
2019-05-06T11:13:24.425Z,100836.61
2019-05-06T11:16:12.817Z,100829.56
2019-05-06T11:18:57.857Z,100827.00
2019-05-06T11:21:45.094Z,100830.28
2019-05-06T11:24:32.636Z,100828.70
2019-05-06T11:27:31.130Z,100830.48
2019-05-06T11:30:06.578Z,100827.85
2019-05-06T11:32:54.800Z,100828.95
2019-05-06T11:35:56.193Z,100833.03
2019-05-06T11:38:43.233Z,100828.84
2019-05-06T11:41:32.106Z,100831.90
2019-05-06T11:44:23.595Z,100832.11
2019-05-06T11:47:07.245Z,100832.26
2019-05-06T11:49:56.298Z,100828.38
2019-05-06T11:52:43.605Z,100831.27
2019-05-06T11:55:38.817Z,100825.41
2019-05-06T11:58:43.003Z,100827.48
2019-05-06T12:04:35.554Z,100819.90
2019-05-06T12:07:24.508Z,100825.06
2019-05-06T12:10:09.477Z,100815.89
2019-05-06T12:12:56.888Z,100824.38
2019-05-06T12:15:43.795Z,100816.09
2019-05-06T12:18:30.702Z,100821.06
2019-05-06T12:21:19.222Z,100818.78
2019-05-06T12:24:04.541Z,100809.34
2019-05-06T12:26:52.763Z,100807.39
2019-05-06T12:29:42.664Z,100814.17
2019-05-06T12:32:26.794Z,100813.79
2019-05-06T12:35:13.992Z,100812.84
2019-05-06T12:38:06.726Z,100801.94
2019-05-06T12:40:54.811Z,100807.48
2019-05-06T12:43:44.890Z,100807.91
2019-05-06T12:46:35.366Z,100808.99
2019-05-06T12:49:22.910Z,100803.30
2019-05-06T12:52:12.231Z,100810.14
2019-05-06T12:55:14.596Z,100797.13
2019-05-06T13:00:50.292Z,100798.08
2019-05-06T13:03:37.586Z,100789.08
2019-05-06T13:06:26.446Z,100797.02
2019-05-06T13:09:12.732Z,100793.89
2019-05-06T13:11:58.318Z,100794.78
2019-05-06T13:14:45.167Z,100795.40
2019-05-06T13:17:32.916Z,100795.63
2019-05-06T13:20:19.195Z,100795.33
2019-05-06T13:23:08.847Z,100797.09
2019-05-06T13:25:53.334Z,100788.17
2019-05-06T13:28:42.542Z,100788.10
2019-05-06T13:31:28.799Z,100788.34
2019-05-06T13:34:18.817Z,100786.55
2019-05-06T13:37:06.101Z,100787.97
2019-05-06T13:39:53.338Z,100782.63
2019-05-06T13:45:52.586Z,100784.82
2019-05-06T13:48:38.516Z,100781.22
2019-05-06T13:51:25.915Z,100781.59
2019-05-06T13:54:15.990Z,100777.41
2019-05-06T13:57:00.180Z,100780.05
2019-05-06T13:59:47.464Z,100775.95
2019-05-06T14:02:34.488Z,100777.35
2019-05-06T14:05:21.596Z,100776.37
2019-05-06T14:08:08.849Z,100779.00
2019-05-06T14:11:00.077Z,100768.56
2019-05-06T14:13:45.200Z,100771.69
2019-05-06T14:16:33.501Z,100773.74
2019-05-06T14:19:19.031Z,100776.52
2019-05-06T14:22:06.725Z,100777.19
2019-05-06T14:25:12.711Z,100774.06
2019-05-06T14:28:05.113Z,100778.59
2019-05-06T14:30:53.194Z,100775.77
2019-05-06T14:33:39.450Z,100772.53
2019-05-06T14:36:27.682Z,100771.88
2019-05-06T14:39:13.945Z,100772.34
2019-05-06T14:42:03.955Z,100780.06
2019-05-06T14:44:47.687Z,100765.92
2019-05-06T14:50:46.184Z,100780.28
2019-05-06T14:53:27.813Z,100777.41
2019-05-06T14:56:22.635Z,100775.83
2019-05-06T14:59:07.770Z,100777.82
2019-05-06T15:01:55.079Z,100781.97
2019-05-06T15:04:43.441Z,100777.54
2019-05-06T15:07:29.110Z,100781.20
2019-05-06T15:10:23.050Z,100782.45
2019-05-06T15:13:03.508Z,100787.68
2019-05-06T15:15:52.242Z,100771.11
2019-05-06T15:18:37.248Z,100770.02
2019-05-06T15:21:36.492Z,100772.64
2019-05-06T15:24:14.735Z,100764.75
2019-05-06T15:27:02.697Z,100767.09
2019-05-06T15:29:49.821Z,100761.55
2019-05-06T15:32:37.056Z,100768.00
2019-05-06T15:35:26.706Z,100763.52
2019-05-06T15:38:19.572Z,100774.68
2019-05-06T15:41:06.413Z,100776.73
2019-05-06T15:43:54.411Z,100772.92
2019-05-06T15:46:43.039Z,100777.29
2019-05-06T15:49:31.919Z,100778.16
2019-05-06T15:52:17.298Z,100776.44
2019-05-06T15:55:07.035Z,100774.94
2019-05-06T15:57:54.104Z,100773.30
2019-05-06T16:00:42.411Z,100769.92
2019-05-06T16:03:27.725Z,100764.02
2019-05-06T16:06:22.895Z,100768.33
2019-05-06T16:09:08.965Z,100772.22
2019-05-06T16:11:58.472Z,100770.58
2019-05-06T16:14:45.196Z,100772.69
2019-05-06T16:17:32.840Z,100766.23
2019-05-06T16:20:19.546Z,100765.16
2019-05-06T16:23:06.737Z,100767.26
2019-05-06T16:25:55.063Z,100764.91
2019-05-06T16:28:44.964Z,100763.91
2019-05-06T16:31:30.083Z,100761.63
2019-05-06T16:34:16.947Z,100753.67
2019-05-06T16:37:03.865Z,100759.95
2019-05-06T16:39:52.483Z,100757.81
2019-05-06T16:42:45.412Z,100755.21
2019-05-06T16:45:30.227Z,100756.45
2019-05-06T16:48:17.090Z,100752.97
2019-05-06T16:51:04.924Z,100751.68
2019-05-06T16:53:53.134Z,100756.67
2019-05-06T16:56:42.176Z,100762.97
2019-05-06T16:59:27.597Z,100764.30
2019-05-06T17:02:15.247Z,100768.38
2019-05-06T17:05:17.529Z,100761.98
2019-05-06T17:08:04.758Z,100766.86
2019-05-06T17:10:53.163Z,100765.94
2019-05-06T17:13:39.708Z,100769.78
2019-05-06T17:16:26.624Z,100762.03
2019-05-06T17:19:22.862Z,100761.55
2019-05-06T17:22:22.911Z,100765.33
2019-05-06T17:25:16.305Z,100758.15
2019-05-06T17:28:18.458Z,100758.18
2019-05-06T17:31:05.269Z,100759.59
2019-05-06T17:33:51.975Z,100759.11
2019-05-06T17:39:45.349Z,100760.58
2019-05-06T17:45:42.880Z,100768.80
2019-05-06T17:48:33.912Z,100760.55
2019-05-06T17:51:23.381Z,100767.14
2019-05-06T17:54:12.325Z,100765.70
2019-05-06T18:00:04.789Z,100770.53
2019-05-06T18:12:09.238Z,100774.53
2019-05-06T18:14:57.442Z,100776.89
2019-05-06T18:17:44.295Z,100776.09
2019-05-06T18:20:45.640Z,100783.19
2019-05-06T18:29:44.928Z,100786.31
2019-05-06T18:35:42.473Z,100790.61
2019-05-06T18:38:30.129Z,100793.63
2019-05-06T18:41:16.845Z,100798.91
2019-05-06T18:44:04.179Z,100805.34
2019-05-06T18:46:53.721Z,100802.25
2019-05-06T18:49:42.453Z,100809.27
2019-05-06T18:52:27.781Z,100803.26
2019-05-06T18:55:15.027Z,100816.14
2019-05-06T18:58:02.387Z,100818.45
2019-05-06T19:00:48.953Z,100822.73
2019-05-06T19:06:42.461Z,100832.25
2019-05-06T19:09:35.108Z,100829.85
2019-05-06T19:12:30.514Z,100837.66
2019-05-06T19:15:08.718Z,100836.53
2019-05-06T19:17:58.610Z,100854.33
2019-05-06T19:23:54.832Z,100871.70
2019-05-06T19:26:39.446Z,100876.54
2019-05-06T19:29:26.208Z,100882.73
2019-05-06T19:32:12.836Z,100875.97
2019-05-06T19:34:59.710Z,100880.47
2019-05-06T19:38:02.993Z,100884.06
2019-05-06T19:40:47.433Z,100884.37
2019-05-06T19:43:34.190Z,100887.15
2019-05-06T19:49:28.225Z,100888.16
2019-05-06T19:52:15.033Z,100886.05
2019-05-06T19:55:03.155Z,100884.08
2019-05-06T19:57:49.193Z,100884.84
2019-05-06T20:00:35.972Z,100880.69
2019-05-06T20:09:53.961Z,100875.36
2019-05-06T20:12:40.924Z,100876.09
2019-05-06T20:15:36.692Z,100879.81
2019-05-06T20:18:24.792Z,100878.31
2019-05-06T20:21:11.808Z,100874.94
2019-05-06T20:23:58.649Z,100880.68
2019-05-06T20:29:52.288Z,100881.76
2019-05-06T20:32:38.726Z,100878.41
2019-05-06T20:35:25.597Z,100875.84
2019-05-06T20:38:13.042Z,100873.73
2019-05-06T20:41:02.872Z,100869.02
2019-05-06T21:14:46.867Z,100857.33
2019-05-06T21:17:34.149Z,100863.81
2019-05-06T21:20:20.793Z,100861.69
2019-05-06T21:23:07.727Z,100860.87
2019-05-06T21:29:03.086Z,100857.44
2019-05-06T21:34:54.236Z,100862.14
2019-05-06T21:37:42.283Z,100854.53
2019-05-06T21:40:27.918Z,100854.78
2019-05-06T21:46:20.909Z,100854.34
2019-05-06T21:49:08.093Z,100848.36
2019-05-06T21:51:54.857Z,100848.07
2019-05-06T21:54:43.434Z,100844.11
2019-05-06T22:00:35.915Z,100842.18
2019-05-06T22:03:23.070Z,100834.13
2019-05-06T22:06:10.249Z,100829.57
2019-05-06T22:08:57.863Z,100831.98
2019-05-06T22:12:02.271Z,100836.17
2019-05-06T22:14:47.342Z,100842.55
2019-05-06T22:24:04.933Z,100838.96
2019-05-06T22:26:52.034Z,100839.69
2019-05-06T22:29:38.589Z,100835.72
2019-05-06T22:32:26.162Z,100837.30
2019-05-06T22:35:22.900Z,100835.36
2019-05-06T22:41:27.807Z,100833.16
2019-05-06T22:44:29.654Z,100820.59
2019-05-06T22:47:16.771Z,100821.93
2019-05-06T22:50:03.678Z,100823.75
2019-05-06T22:59:03.324Z,100816.68
2019-05-06T23:01:55.092Z,100815.31
2019-05-06T23:20:12.328Z,100796.04
2019-05-06T23:22:59.423Z,100804.27
2019-05-06T23:42:52.606Z,100804.52
2019-05-06T23:46:35.202Z,100808.67
2019-05-06T23:50:25.474Z,100813.70
2019-05-06T23:54:08.861Z,100816.05
2019-05-06T23:57:14.615Z,100812.73
